sensor_id;sensor_type;location;lat;lon;timestamp;pressure;altitude;pressure_sealevel;temperature;humidity
69982;BME280;57319;56.274;43.980;2023-04-06T00:01:07;100249.47;;;5.32;60.39
69982;BME280;57319;56.274;43.980;2023-04-06T00:03:34;100249.38;;;5.27;60.37
69982;BME280;57319;56.274;43.980;2023-04-06T00:06:00;100251.06;;;5.26;60.28
69982;BME280;57319;56.274;43.980;2023-04-06T00:08:26;100262.94;;;5.24;60.58
69982;BME280;57319;56.274;43.980;2023-04-06T00:10:52;100252.69;;;5.21;60.63
69982;BME280;57319;56.274;43.980;2023-04-06T00:13:18;100259.38;;;5.16;60.82
69982;BME280;57319;56.274;43.980;2023-04-06T00:15:43;100255.16;;;5.15;61.06
69982;BME280;57319;56.274;43.980;2023-04-06T00:18:09;100258.47;;;5.11;60.78
69982;BME280;57319;56.274;43.980;2023-04-06T00:20:35;100260.16;;;5.10;61.00
69982;BME280;57319;56.274;43.980;2023-04-06T00:23:00;100258.41;;;5.08;60.92
69982;BME280;57319;56.274;43.980;2023-04-06T00:25:27;100266.03;;;5.06;60.44
69982;BME280;57319;56.274;43.980;2023-04-06T00:27:53;100269.41;;;5.05;60.74
69982;BME280;57319;56.274;43.980;2023-04-06T00:30:18;100267.72;;;5.04;61.12
69982;BME280;57319;56.274;43.980;2023-04-06T00:32:44;100269.34;;;5.02;60.88
69982;BME280;57319;56.274;43.980;2023-04-06T00:35:10;100272.72;;;5.00;61.09
69982;BME280;57319;56.274;43.980;2023-04-06T00:37:36;100272.72;;;5.00;61.04
69982;BME280;57319;56.274;43.980;2023-04-06T00:40:02;100270.00;;;4.90;61.03
69982;BME280;57319;56.274;43.980;2023-04-06T00:42:29;100282.84;;;4.95;61.07
69982;BME280;57319;56.274;43.980;2023-04-06T00:44:56;100277.59;;;4.89;61.14
69982;BME280;57319;56.274;43.980;2023-04-06T00:47:22;100273.34;;;4.86;61.09
69982;BME280;57319;56.274;43.980;2023-04-06T00:49:50;100281.81;;;4.85;61.44
69982;BME280;57319;56.274;43.980;2023-04-06T00:52:17;100277.50;;;4.83;61.38
69982;BME280;57319;56.274;43.980;2023-04-06T00:54:43;100291.09;;;4.82;61.61
69982;BME280;57319;56.274;43.980;2023-04-06T00:57:11;100293.59;;;4.79;61.66
69982;BME280;57319;56.274;43.980;2023-04-06T00:59:36;100284.16;;;4.74;61.89
69982;BME280;57319;56.274;43.980;2023-04-06T01:02:02;100289.19;;;4.71;61.78
69982;BME280;57319;56.274;43.980;2023-04-06T01:04:28;100289.22;;;4.73;61.99
69982;BME280;57319;56.274;43.980;2023-04-06T01:06:54;100292.53;;;4.69;61.93
69982;BME280;57319;56.274;43.980;2023-04-06T01:09:21;100290.78;;;4.66;62.17
69982;BME280;57319;56.274;43.980;2023-04-06T01:11:46;100291.59;;;4.64;61.99
69982;BME280;57319;56.274;43.980;2023-04-06T01:14:12;100290.63;;;4.58;62.38
69982;BME280;57319;56.274;43.980;2023-04-06T01:16:38;100291.38;;;4.54;62.64
69982;BME280;57319;56.274;43.980;2023-04-06T01:19:11;100288.78;;;4.51;62.56
69982;BME280;57319;56.274;43.980;2023-04-06T01:21:38;100300.59;;;4.48;62.66
69982;BME280;57319;56.274;43.980;2023-04-06T01:24:04;100293.00;;;4.49;62.72
69982;BME280;57319;56.274;43.980;2023-04-06T01:26:31;100298.03;;;4.46;62.88
69982;BME280;57319;56.274;43.980;2023-04-06T01:28:56;100294.56;;;4.43;62.73
69982;BME280;57319;56.274;43.980;2023-04-06T01:31:22;100296.13;;;4.36;63.22
69982;BME280;57319;56.274;43.980;2023-04-06T01:33:48;100294.41;;;4.36;63.28
69982;BME280;57319;56.274;43.980;2023-04-06T01:36:15;100293.50;;;4.33;63.32
69982;BME280;57319;56.274;43.980;2023-04-06T01:38:41;100301.03;;;4.28;63.66
69982;BME280;57319;56.274;43.980;2023-04-06T01:41:07;100302.59;;;4.21;63.73
69982;BME280;57319;56.274;43.980;2023-04-06T01:43:33;100299.16;;;4.19;64.11
69982;BME280;57319;56.274;43.980;2023-04-06T01:45:58;100303.38;;;4.19;64.05
69982;BME280;57319;56.274;43.980;2023-04-06T01:48:25;100306.63;;;4.12;64.13
69982;BME280;57319;56.274;43.980;2023-04-06T01:50:51;100304.03;;;4.08;64.47
69982;BME280;57319;56.274;43.980;2023-04-06T01:53:17;100308.28;;;4.10;64.40
69982;BME280;57319;56.274;43.980;2023-04-06T01:55:42;100315.94;;;4.10;64.56
69982;BME280;57319;56.274;43.980;2023-04-06T01:58:08;100315.81;;;4.05;64.42
69982;BME280;57319;56.274;43.980;2023-04-06T02:00:33;100316.50;;;3.98;64.60
69982;BME280;57319;56.274;43.980;2023-04-06T02:02:59;100313.84;;;3.92;64.95
69982;BME280;57319;56.274;43.980;2023-04-06T02:05:25;100331.66;;;3.92;65.07
69982;BME280;57319;56.274;43.980;2023-04-06T02:07:51;100327.34;;;3.89;65.24
69982;BME280;57319;56.274;43.980;2023-04-06T02:10:17;100334.09;;;3.87;65.06
69982;BME280;57319;56.274;43.980;2023-04-06T02:12:43;100334.03;;;3.85;65.30
69982;BME280;57319;56.274;43.980;2023-04-06T02:15:09;100335.56;;;3.77;65.41
69982;BME280;57319;56.274;43.980;2023-04-06T02:17:35;100336.34;;;3.74;65.64
69982;BME280;57319;56.274;43.980;2023-04-06T02:20:02;100339.78;;;3.77;65.73
69982;BME280;57319;56.274;43.980;2023-04-06T02:22:28;100343.94;;;3.73;66.09
69982;BME280;57319;56.274;43.980;2023-04-06T02:24:54;100347.28;;;3.72;66.08
69982;BME280;57319;56.274;43.980;2023-04-06T02:27:20;100354.97;;;3.73;66.11
69982;BME280;57319;56.274;43.980;2023-04-06T02:29:45;100354.97;;;3.73;65.95
69982;BME280;57319;56.274;43.980;2023-04-06T02:32:11;100358.25;;;3.69;66.20
69982;BME280;57319;56.274;43.980;2023-04-06T02:34:37;100348.00;;;3.66;66.33
69982;BME280;57319;56.274;43.980;2023-04-06T02:37:02;100354.63;;;3.60;66.50
69982;BME280;57319;56.274;43.980;2023-04-06T02:39:28;100353.56;;;3.51;66.68
69982;BME280;57319;56.274;43.980;2023-04-06T02:41:53;100356.88;;;3.47;67.09
69982;BME280;57319;56.274;43.980;2023-04-06T02:44:20;100357.78;;;3.49;67.08
69982;BME280;57319;56.274;43.980;2023-04-06T02:46:46;100355.28;;;3.51;66.83
69982;BME280;57319;56.274;43.980;2023-04-06T02:49:11;100373.19;;;3.55;66.75
69982;BME280;57319;56.274;43.980;2023-04-06T02:51:37;100369.06;;;3.59;66.87
69982;BME280;57319;56.274;43.980;2023-04-06T02:54:03;100363.94;;;3.58;66.86
69982;BME280;57319;56.274;43.980;2023-04-06T02:56:28;100371.59;;;3.59;66.95
69982;BME280;57319;56.274;43.980;2023-04-06T02:58:54;100368.09;;;3.55;66.67
69982;BME280;57319;56.274;43.980;2023-04-06T03:01:20;100374.03;;;3.54;66.82
69982;BME280;57319;56.274;43.980;2023-04-06T03:03:45;100376.66;;;3.58;67.00
69982;BME280;57319;56.274;43.980;2023-04-06T03:06:11;100375.66;;;3.52;67.12
69982;BME280;57319;56.274;43.980;2023-04-06T03:08:37;100377.53;;;3.60;66.74
69982;BME280;57319;56.274;43.980;2023-04-06T03:11:02;100377.47;;;3.56;66.85
69982;BME280;57319;56.274;43.980;2023-04-06T03:13:28;100382.53;;;3.55;66.95
69982;BME280;57319;56.274;43.980;2023-04-06T03:15:54;100374.72;;;3.49;67.23
69982;BME280;57319;56.274;43.980;2023-04-06T03:18:23;100376.41;;;3.48;67.16
69982;BME280;57319;56.274;43.980;2023-04-06T03:20:49;100382.41;;;3.50;67.13
69982;BME280;57319;56.274;43.980;2023-04-06T03:23:15;100376.41;;;3.48;67.16
69982;BME280;57319;56.274;43.980;2023-04-06T03:25:41;100389.31;;;3.54;67.03
69982;BME280;57319;56.274;43.980;2023-04-06T03:28:07;100377.47;;;3.56;66.99
69982;BME280;57319;56.274;43.980;2023-04-06T03:30:34;100378.38;;;3.59;66.69
69982;BME280;57319;56.274;43.980;2023-04-06T03:33:00;100385.09;;;3.56;66.87
69982;BME280;57319;56.274;43.980;2023-04-06T03:35:25;100389.53;;;3.64;66.49
69982;BME280;57319;56.274;43.980;2023-04-06T03:37:51;100393.00;;;3.66;66.41
69982;BME280;57319;56.274;43.980;2023-04-06T03:40:17;100399.81;;;3.67;66.06
69982;BME280;57319;56.274;43.980;2023-04-06T03:42:42;100398.09;;;3.66;65.99
69982;BME280;57319;56.274;43.980;2023-04-06T03:45:08;100395.53;;;3.66;66.10
69982;BME280;57319;56.274;43.980;2023-04-06T03:47:34;100402.47;;;3.71;65.96
69982;BME280;57319;56.274;43.980;2023-04-06T03:50:00;100406.72;;;3.71;65.60
69982;BME280;57319;56.274;43.980;2023-04-06T03:52:26;100396.53;;;3.71;65.60
69982;BME280;57319;56.274;43.980;2023-04-06T03:54:52;100398.41;;;3.78;65.57
69982;BME280;57319;56.274;43.980;2023-04-06T03:57:18;100395.94;;;3.83;65.33
69982;BME280;57319;56.274;43.980;2023-04-06T03:59:43;100399.56;;;3.91;64.98
69982;BME280;57319;56.274;43.980;2023-04-06T04:02:09;100408.13;;;3.95;64.87
69982;BME280;57319;56.274;43.980;2023-04-06T04:04:34;100401.41;;;3.98;64.80
69982;BME280;57319;56.274;43.980;2023-04-06T04:07:00;100403.84;;;3.94;64.52
69982;BME280;57319;56.274;43.980;2023-04-06T04:09:26;100407.41;;;4.00;64.40
69982;BME280;57319;56.274;43.980;2023-04-06T04:11:51;100402.41;;;4.03;64.13
69982;BME280;57319;56.274;43.980;2023-04-06T04:14:17;100410.09;;;4.06;63.71
69982;BME280;57319;56.274;43.980;2023-04-06T04:16:43;100405.06;;;4.08;63.78
69982;BME280;57319;56.274;43.980;2023-04-06T04:19:08;100411.84;;;4.07;63.89
69982;BME280;57319;56.274;43.980;2023-04-06T04:21:42;100419.75;;;4.18;63.61
69982;BME280;57319;56.274;43.980;2023-04-06T04:24:08;100417.13;;;4.15;62.63
69982;BME280;57319;56.274;43.980;2023-04-06T04:26:34;100418.00;;;4.17;63.00
69982;BME280;57319;56.274;43.980;2023-04-06T04:28:59;100422.38;;;4.23;63.14
69982;BME280;57319;56.274;43.980;2023-04-06T04:31:25;100414.88;;;4.28;62.67
69982;BME280;57319;56.274;43.980;2023-04-06T04:33:51;100421.91;;;4.38;62.64
69982;BME280;57319;56.274;43.980;2023-04-06T04:36:16;100422.06;;;4.44;62.11
69982;BME280;57319;56.274;43.980;2023-04-06T04:38:42;100430.66;;;4.49;62.00
69982;BME280;57319;56.274;43.980;2023-04-06T04:41:07;100421.22;;;4.45;61.75
69982;BME280;57319;56.274;43.980;2023-04-06T04:43:33;100430.69;;;4.51;61.62
69982;BME280;57319;56.274;43.980;2023-04-06T04:45:59;100427.38;;;4.53;61.55
69982;BME280;57319;56.274;43.980;2023-04-06T04:48:24;100424.13;;;4.61;61.57
69982;BME280;57319;56.274;43.980;2023-04-06T04:50:50;100424.25;;;4.67;61.24
69982;BME280;57319;56.274;43.980;2023-04-06T04:53:16;100432.03;;;4.73;60.80
69982;BME280;57319;56.274;43.980;2023-04-06T04:55:42;100436.38;;;4.77;60.88
69982;BME280;57319;56.274;43.980;2023-04-06T04:58:07;100440.75;;;4.83;60.85
69982;BME280;57319;56.274;43.980;2023-04-06T05:00:34;100440.16;;;4.95;60.32
69982;BME280;57319;56.274;43.980;2023-04-06T05:03:00;100443.59;;;4.97;60.14
69982;BME280;57319;56.274;43.980;2023-04-06T05:05:25;100442.91;;;5.05;59.88
69982;BME280;57319;56.274;43.980;2023-04-06T05:07:51;100442.22;;;5.11;59.25
69982;BME280;57319;56.274;43.980;2023-04-06T05:10:17;100444.78;;;5.13;59.45
69982;BME280;57319;56.274;43.980;2023-04-06T05:12:43;100446.69;;;5.23;59.23
69982;BME280;57319;56.274;43.980;2023-04-06T05:15:09;100455.34;;;5.31;58.98
69982;BME280;57319;56.274;43.980;2023-04-06T05:17:35;100450.44;;;5.40;58.34
69982;BME280;57319;56.274;43.980;2023-04-06T05:20:00;100458.09;;;5.40;58.29
69982;BME280;57319;56.274;43.980;2023-04-06T05:22:26;100455.72;;;5.50;58.15
69982;BME280;57319;56.274;43.980;2023-04-06T05:24:52;100455.53;;;5.40;57.95
69982;BME280;57319;56.274;43.980;2023-04-06T05:27:17;100451.38;;;5.46;57.79
69982;BME280;57319;56.274;43.980;2023-04-06T05:29:43;100448.06;;;5.50;57.95
69982;BME280;57319;56.274;43.980;2023-04-06T05:32:08;100453.41;;;5.62;57.40
69982;BME280;57319;56.274;43.980;2023-04-06T05:34:35;100458.63;;;5.68;56.86
69982;BME280;57319;56.274;43.980;2023-04-06T05:37:02;100454.44;;;5.72;56.88
69982;BME280;57319;56.274;43.980;2023-04-06T05:39:27;100458.00;;;5.82;57.31
69982;BME280;57319;56.274;43.980;2023-04-06T05:41:53;100459.97;;;5.95;56.54
69982;BME280;57319;56.274;43.980;2023-04-06T05:44:19;100460.03;;;5.98;56.15
69982;BME280;57319;56.274;43.980;2023-04-06T05:46:45;100461.84;;;6.05;56.10
69982;BME280;57319;56.274;43.980;2023-04-06T05:49:10;100460.13;;;6.04;55.98
69982;BME280;57319;56.274;43.980;2023-04-06T05:51:36;100462.84;;;6.14;55.76
69982;BME280;57319;56.274;43.980;2023-04-06T05:54:02;100466.34;;;6.19;55.67
69982;BME280;57319;56.274;43.980;2023-04-06T05:56:27;100462.88;;;6.15;55.26
69982;BME280;57319;56.274;43.980;2023-04-06T05:58:55;100460.50;;;6.26;55.37
69982;BME280;57319;56.274;43.980;2023-04-06T06:01:21;100464.03;;;6.34;55.25
69982;BME280;57319;56.274;43.980;2023-04-06T06:03:46;100461.66;;;6.45;54.99
69982;BME280;57319;56.274;43.980;2023-04-06T06:06:12;100461.69;;;6.48;54.23
69982;BME280;57319;56.274;43.980;2023-04-06T06:08:38;100469.31;;;6.45;54.13
69982;BME280;57319;56.274;43.980;2023-04-06T06:11:03;100462.44;;;6.42;54.23
69982;BME280;57319;56.274;43.980;2023-04-06T06:13:29;100471.88;;;6.45;54.61
69982;BME280;57319;56.274;43.980;2023-04-06T06:15:55;100463.41;;;6.49;54.39
69982;BME280;57319;56.274;43.980;2023-04-06T06:18:20;100473.69;;;6.52;54.73
69982;BME280;57319;56.274;43.980;2023-04-06T06:20:46;100474.59;;;6.54;54.16
69982;BME280;57319;56.274;43.980;2023-04-06T06:23:12;100473.78;;;6.57;54.15
69982;BME280;57319;56.274;43.980;2023-04-06T06:25:37;100485.81;;;6.66;53.74
69982;BME280;57319;56.274;43.980;2023-04-06T06:28:03;100480.72;;;6.66;53.57
69982;BME280;57319;56.274;43.980;2023-04-06T06:30:29;100473.97;;;6.71;53.84
69982;BME280;57319;56.274;43.980;2023-04-06T06:32:55;100474.03;;;6.75;53.13
69982;BME280;57319;56.274;43.980;2023-04-06T06:35:21;100478.47;;;6.87;53.58
69982;BME280;57319;56.274;43.980;2023-04-06T06:37:46;100471.81;;;7.02;52.85
69982;BME280;57319;56.274;43.980;2023-04-06T06:40:12;100472.00;;;7.14;52.78
69982;BME280;57319;56.274;43.980;2023-04-06T06:42:43;100472.00;;;7.16;52.22
69982;BME280;57319;56.274;43.980;2023-04-06T06:45:09;100472.78;;;7.10;52.32
69982;BME280;57319;56.274;43.980;2023-04-06T06:47:35;100488.84;;;6.96;52.37
69982;BME280;57319;56.274;43.980;2023-04-06T06:50:01;100476.13;;;7.03;52.81
69982;BME280;57319;56.274;43.980;2023-04-06T06:52:29;100476.28;;;7.15;52.48
69982;BME280;57319;56.274;43.980;2023-04-06T06:54:55;100479.03;;;7.32;52.19
69982;BME280;57319;56.274;43.980;2023-04-06T06:57:24;100471.56;;;7.47;51.51
69982;BME280;57319;56.274;43.980;2023-04-06T06:59:50;100474.91;;;7.42;51.08
69982;BME280;57319;56.274;43.980;2023-04-06T07:02:15;100480.88;;;7.41;51.25
69982;BME280;57319;56.274;43.980;2023-04-06T07:04:41;100473.22;;;7.44;51.33
69982;BME280;57319;56.274;43.980;2023-04-06T07:07:07;100470.72;;;7.50;50.96
69982;BME280;57319;56.274;43.980;2023-04-06T07:09:33;100477.75;;;7.67;50.83
69982;BME280;57319;56.274;43.980;2023-04-06T07:11:59;100471.81;;;7.72;50.50
69982;BME280;57319;56.274;43.980;2023-04-06T07:14:26;100477.88;;;7.79;50.02
69982;BME280;57319;56.274;43.980;2023-04-06T07:16:51;100482.13;;;7.80;50.21
69982;BME280;57319;56.274;43.980;2023-04-06T07:19:17;100462.53;;;7.85;49.63
69982;BME280;57319;56.274;43.980;2023-04-06T07:21:43;100471.97;;;7.89;49.31
69982;BME280;57319;56.274;43.980;2023-04-06T07:24:08;100474.56;;;7.91;49.63
69982;BME280;57319;56.274;43.980;2023-04-06T07:26:37;100470.44;;;8.05;49.29
69982;BME280;57319;56.274;43.980;2023-04-06T07:29:03;100473.94;;;8.15;49.01
69982;BME280;57319;56.274;43.980;2023-04-06T07:31:29;100473.13;;;8.21;48.00
69982;BME280;57319;56.274;43.980;2023-04-06T07:33:55;100472.28;;;8.22;48.41
69982;BME280;57319;56.274;43.980;2023-04-06T07:36:21;100469.75;;;8.29;48.18
69982;BME280;57319;56.274;43.980;2023-04-06T07:38:46;100471.47;;;8.26;47.65
69982;BME280;57319;56.274;43.980;2023-04-06T07:41:12;100468.91;;;8.27;47.29
69982;BME280;57319;56.274;43.980;2023-04-06T07:43:38;100466.34;;;8.29;46.71
69982;BME280;57319;56.274;43.980;2023-04-06T07:46:05;100483.50;;;8.33;46.63
69982;BME280;57319;56.274;43.980;2023-04-06T07:48:31;100473.25;;;8.39;47.36
69982;BME280;57319;56.274;43.980;2023-04-06T07:51:04;100474.25;;;8.49;47.44
69982;BME280;57319;56.274;43.980;2023-04-06T07:53:30;100462.28;;;8.49;46.03
69982;BME280;57319;56.274;43.980;2023-04-06T07:56:00;100468.31;;;8.58;46.43
69982;BME280;57319;56.274;43.980;2023-04-06T07:58:25;100470.97;;;8.72;46.49
69982;BME280;57319;56.274;43.980;2023-04-06T08:00:51;100477.91;;;8.90;45.48
69982;BME280;57319;56.274;43.980;2023-04-06T08:03:17;100477.97;;;8.96;45.14
69982;BME280;57319;56.274;43.980;2023-04-06T08:05:43;100481.38;;;8.99;44.66
69982;BME280;57319;56.274;43.980;2023-04-06T08:08:08;100479.69;;;8.98;44.51
69982;BME280;57319;56.274;43.980;2023-04-06T08:10:34;100488.25;;;9.04;44.17
69982;BME280;57319;56.274;43.980;2023-04-06T08:13:00;100480.59;;;9.08;44.04
69982;BME280;57319;56.274;43.980;2023-04-06T08:15:26;100486.44;;;8.86;42.32
69982;BME280;57319;56.274;43.980;2023-04-06T08:17:52;100493.22;;;8.76;42.31
69982;BME280;57319;56.274;43.980;2023-04-06T08:20:18;100481.22;;;8.72;42.33
69982;BME280;57319;56.274;43.980;2023-04-06T08:22:43;100486.44;;;8.87;42.69
69982;BME280;57319;56.274;43.980;2023-04-06T08:25:09;100488.19;;;8.87;42.17
69982;BME280;57319;56.274;43.980;2023-04-06T08:27:35;100485.53;;;8.77;41.68
69982;BME280;57319;56.274;43.980;2023-04-06T08:30:00;100484.69;;;8.74;41.51
69982;BME280;57319;56.274;43.980;2023-04-06T08:32:27;100487.25;;;8.74;41.17
69982;BME280;57319;56.274;43.980;2023-04-06T08:34:54;100486.50;;;8.90;40.91
69982;BME280;57319;56.274;43.980;2023-04-06T08:37:20;100489.06;;;8.93;40.53
69982;BME280;57319;56.274;43.980;2023-04-06T08:39:46;100485.66;;;8.94;39.94
69982;BME280;57319;56.274;43.980;2023-04-06T08:42:18;100489.09;;;8.99;40.61
69982;BME280;57319;56.274;43.980;2023-04-06T08:44:44;100484.06;;;9.21;40.98
69982;BME280;57319;56.274;43.980;2023-04-06T08:47:11;100485.81;;;9.28;39.80
69982;BME280;57319;56.274;43.980;2023-04-06T08:49:37;100493.56;;;9.34;38.04
69982;BME280;57319;56.274;43.980;2023-04-06T08:52:06;100490.09;;;9.31;38.08
69982;BME280;57319;56.274;43.980;2023-04-06T08:54:33;100479.81;;;9.32;36.84
69982;BME280;57319;56.274;43.980;2023-04-06T08:56:59;100490.16;;;9.37;37.34
69982;BME280;57319;56.274;43.980;2023-04-06T08:59:26;100491.88;;;9.40;36.66
69982;BME280;57319;56.274;43.980;2023-04-06T09:01:53;100485.06;;;9.51;36.78
69982;BME280;57319;56.274;43.980;2023-04-06T09:04:19;100481.63;;;9.61;35.79
69982;BME280;57319;56.274;43.980;2023-04-06T09:06:45;100486.81;;;9.67;34.40
69982;BME280;57319;56.274;43.980;2023-04-06T09:09:11;100481.69;;;9.67;34.71
69982;BME280;57319;56.274;43.980;2023-04-06T09:11:44;100492.00;;;9.80;35.03
69982;BME280;57319;56.274;43.980;2023-04-06T09:14:09;100484.28;;;9.98;34.42
69982;BME280;57319;56.274;43.980;2023-04-06T09:16:40;100480.88;;;10.01;32.36
69982;BME280;57319;56.274;43.980;2023-04-06T09:19:07;100480.03;;;10.00;31.79
69982;BME280;57319;56.274;43.980;2023-04-06T09:21:33;100483.44;;;9.96;31.88
69982;BME280;57319;56.274;43.980;2023-04-06T09:24:00;100469.72;;;10.08;31.50
69982;BME280;57319;56.274;43.980;2023-04-06T09:26:26;100477.47;;;10.16;30.92
69982;BME280;57319;56.274;43.980;2023-04-06T09:28:57;100476.59;;;10.32;31.30
69982;BME280;57319;56.274;43.980;2023-04-06T09:31:30;100478.31;;;10.27;29.94
69982;BME280;57319;56.274;43.980;2023-04-06T09:33:58;100480.91;;;10.37;31.12
69982;BME280;57319;56.274;43.980;2023-04-06T09:36:35;100483.50;;;10.46;29.93
69982;BME280;57319;56.274;43.980;2023-04-06T09:39:05;100476.63;;;10.52;30.49
69982;BME280;57319;56.274;43.980;2023-04-06T09:41:36;100472.31;;;10.64;30.65
69982;BME280;57319;56.274;43.980;2023-04-06T09:44:11;100470.63;;;10.57;30.20
69982;BME280;57319;56.274;43.980;2023-04-06T09:46:42;100472.34;;;10.62;30.76
69982;BME280;57319;56.274;43.980;2023-04-06T09:49:09;100474.91;;;10.72;30.27
69982;BME280;57319;56.274;43.980;2023-04-06T09:51:46;100473.16;;;10.80;30.85
69982;BME280;57319;56.274;43.980;2023-04-06T09:54:18;100465.41;;;10.95;29.42
69982;BME280;57319;56.274;43.980;2023-04-06T09:56:46;100468.84;;;10.90;29.46
69982;BME280;57319;56.274;43.980;2023-04-06T09:59:14;100465.34;;;11.03;30.07
69982;BME280;57319;56.274;43.980;2023-04-06T10:01:44;100464.50;;;11.02;28.61
69982;BME280;57319;56.274;43.980;2023-04-06T10:04:31;100464.53;;;10.98;28.50
69982;BME280;57319;56.274;43.980;2023-04-06T10:07:02;100453.34;;;11.02;28.69
69982;BME280;57319;56.274;43.980;2023-04-06T10:09:28;100470.47;;;11.17;28.27
69982;BME280;57319;56.274;43.980;2023-04-06T10:12:03;100465.25;;;11.28;28.17
69982;BME280;57319;56.274;43.980;2023-04-06T10:14:29;100455.78;;;11.34;27.44
69982;BME280;57319;56.274;43.980;2023-04-06T10:16:56;100467.81;;;11.35;26.84
69982;BME280;57319;56.274;43.980;2023-04-06T10:19:26;100462.72;;;11.20;26.82
69982;BME280;57319;56.274;43.980;2023-04-06T10:21:57;100460.19;;;11.17;27.37
69982;BME280;57319;56.274;43.980;2023-04-06T10:24:26;100449.84;;;11.22;27.06
69982;BME280;57319;56.274;43.980;2023-04-06T10:27:02;100447.19;;;11.42;26.96
69982;BME280;57319;56.274;43.980;2023-04-06T10:29:28;100448.84;;;11.49;26.83
69982;BME280;57319;56.274;43.980;2023-04-06T10:31:54;100452.25;;;11.51;26.55
69982;BME280;57319;56.274;43.980;2023-04-06T10:34:21;100449.69;;;11.51;26.62
69982;BME280;57319;56.274;43.980;2023-04-06T10:36:46;100458.28;;;11.53;26.45
69982;BME280;57319;56.274;43.980;2023-04-06T10:39:12;100458.19;;;11.70;26.69
69982;BME280;57319;56.274;43.980;2023-04-06T10:41:42;100460.66;;;11.84;25.13
69982;BME280;57319;56.274;43.980;2023-04-06T10:44:17;100458.91;;;11.91;24.75
69982;BME280;57319;56.274;43.980;2023-04-06T10:46:55;100451.06;;;12.09;25.28
69982;BME280;57319;56.274;43.980;2023-04-06T10:49:22;100462.13;;;12.25;25.55
69982;BME280;57319;56.274;43.980;2023-04-06T10:51:54;100456.72;;;12.54;24.89
69982;BME280;57319;56.274;43.980;2023-04-06T10:54:21;100451.59;;;13.28;24.78
69982;BME280;57319;56.274;43.980;2023-04-06T10:56:48;100444.50;;;14.54;23.00
69982;BME280;57319;56.274;43.980;2023-04-06T10:59:18;100454.38;;;15.26;22.40
69982;BME280;57319;56.274;43.980;2023-04-06T11:01:44;100456.31;;;15.57;20.75
69982;BME280;57319;56.274;43.980;2023-04-06T11:04:19;100455.16;;;15.70;21.23
69982;BME280;57319;56.274;43.980;2023-04-06T11:06:49;100450.94;;;15.66;20.84
69982;BME280;57319;56.274;43.980;2023-04-06T11:09:28;100447.22;;;15.39;20.58
69982;BME280;57319;56.274;43.980;2023-04-06T11:11:55;100454.63;;;15.14;21.15
69982;BME280;57319;56.274;43.980;2023-04-06T11:14:22;100461.72;;;15.48;21.03
69982;BME280;57319;56.274;43.980;2023-04-06T11:16:48;100446.19;;;14.57;21.10
69982;BME280;57319;56.274;43.980;2023-04-06T11:19:17;100442.28;;;14.83;20.97
69982;BME280;57319;56.274;43.980;2023-04-06T11:21:47;100458.06;;;14.19;20.96
69982;BME280;57319;56.274;43.980;2023-04-06T11:24:26;100458.06;;;13.61;21.57
69982;BME280;57319;56.274;43.980;2023-04-06T11:26:56;100452.19;;;13.50;21.97
69982;BME280;57319;56.274;43.980;2023-04-06T11:29:24;100459.72;;;13.65;21.99
69982;BME280;57319;56.274;43.980;2023-04-06T11:32:04;100459.28;;;14.48;21.06
69982;BME280;57319;56.274;43.980;2023-04-06T11:34:33;100449.50;;;15.53;20.18
69982;BME280;57319;56.274;43.980;2023-04-06T11:37:02;100442.66;;;15.49;20.45
69982;BME280;57319;56.274;43.980;2023-04-06T11:39:29;100445.38;;;15.42;20.27
69982;BME280;57319;56.274;43.980;2023-04-06T11:42:00;100436.63;;;17.21;19.06
69982;BME280;57319;56.274;43.980;2023-04-06T11:44:45;100447.00;;;18.34;17.45
69982;BME280;57319;56.274;43.980;2023-04-06T11:47:14;100448.00;;;18.55;17.65
69982;BME280;57319;56.274;43.980;2023-04-06T11:49:43;100435.88;;;18.54;17.92
69982;BME280;57319;56.274;43.980;2023-04-06T11:52:26;100434.72;;;18.87;16.95
69982;BME280;57319;56.274;43.980;2023-04-06T11:54:54;100441.38;;;18.95;17.30
69982;BME280;57319;56.274;43.980;2023-04-06T11:57:21;100445.47;;;19.26;17.81
69982;BME280;57319;56.274;43.980;2023-04-06T11:59:50;100434.03;;;19.97;17.29
69982;BME280;57319;56.274;43.980;2023-04-06T12:02:16;100438.78;;;19.87;16.94
69982;BME280;57319;56.274;43.980;2023-04-06T12:04:43;100432.16;;;19.78;16.97
69982;BME280;57319;56.274;43.980;2023-04-06T12:07:09;100427.69;;;20.03;17.06
69982;BME280;57319;56.274;43.980;2023-04-06T12:09:35;100425.56;;;20.12;16.53
69982;BME280;57319;56.274;43.980;2023-04-06T12:12:01;100434.72;;;21.04;16.47
69982;BME280;57319;56.274;43.980;2023-04-06T12:14:27;100437.03;;;21.48;15.77
69982;BME280;57319;56.274;43.980;2023-04-06T12:16:53;100430.63;;;21.55;16.04
69982;BME280;57319;56.274;43.980;2023-04-06T12:19:18;100428.34;;;20.90;16.28
69982;BME280;57319;56.274;43.980;2023-04-06T12:21:44;100429.47;;;20.64;16.78
69982;BME280;57319;56.274;43.980;2023-04-06T12:24:10;100421.44;;;21.27;16.22
69982;BME280;57319;56.274;43.980;2023-04-06T12:26:36;100432.94;;;21.04;16.50
69982;BME280;57319;56.274;43.980;2023-04-06T12:29:02;100433.28;;;20.77;16.21
69982;BME280;57319;56.274;43.980;2023-04-06T12:31:34;100427.50;;;21.09;16.49
69982;BME280;57319;56.274;43.980;2023-04-06T12:34:00;100433.91;;;20.82;16.46
69982;BME280;57319;56.274;43.980;2023-04-06T12:36:27;100434.13;;;19.04;17.19
69982;BME280;57319;56.274;43.980;2023-04-06T12:38:53;100434.25;;;18.50;18.68
69982;BME280;57319;56.274;43.980;2023-04-06T12:41:19;100424.25;;;20.02;17.05
69982;BME280;57319;56.274;43.980;2023-04-06T12:43:45;100437.50;;;20.39;16.88
69982;BME280;57319;56.274;43.980;2023-04-06T12:46:12;100431.97;;;20.26;16.61